createdAt,value
2017-10-31T00:00:08.390Z,5.1
2017-10-31T00:01:18.356Z,5.19
2017-10-31T00:02:28.640Z,5.1
2017-10-31T00:03:38.610Z,5.16
2017-10-31T00:04:48.588Z,5.16
2017-10-31T00:05:59.126Z,5.1
2017-10-31T00:07:09.414Z,5.16
2017-10-31T00:08:19.412Z,5.13
2017-10-31T00:09:29.386Z,5.19
2017-10-31T00:10:39.353Z,5.16
2017-10-31T00:11:49.568Z,5.15
2017-10-31T00:12:59.884Z,5.16
2017-10-31T00:14:10.173Z,5.1
2017-10-31T00:15:20.464Z,5.18
2017-10-31T00:16:30.446Z,5.19
2017-10-31T00:17:40.007Z,5.12
2017-10-31T00:18:50.295Z,5.16
2017-10-31T00:20:00.270Z,5.15
2017-10-31T00:21:10.559Z,5.19
2017-10-31T00:22:20.856Z,5.12
2017-10-31T00:23:31.174Z,5.16
2017-10-31T00:24:41.458Z,5.13
2017-10-31T00:25:51.424Z,5.19
2017-10-31T00:27:01.711Z,5.12
2017-10-31T00:28:11.686Z,5.1
2017-10-31T00:29:22.223Z,5.1
2017-10-31T00:30:32.524Z,5.12
2017-10-31T00:31:42.831Z,5.15
2017-10-31T00:32:52.838Z,5.16
2017-10-31T00:34:03.124Z,5.15
2017-10-31T00:35:13.351Z,5.13
2017-10-31T00:36:23.637Z,5.16
2017-10-31T00:37:33.937Z,5.18
2017-10-31T00:38:43.911Z,5.18
2017-10-31T00:39:53.562Z,5.08
2017-10-31T00:41:03.453Z,5.15
2017-10-31T00:42:13.421Z,5.1
2017-10-31T00:43:23.720Z,5.18
2017-10-31T00:44:34.016Z,5.15
2017-10-31T00:45:44.312Z,5.12
2017-10-31T00:46:54.850Z,5.12
2017-10-31T00:48:04.833Z,5.15
2017-10-31T00:49:15.128Z,5.15
2017-10-31T00:50:25.119Z,5.13
2017-10-31T00:51:35.423Z,5.18
2017-10-31T00:52:45.971Z,5.15
2017-10-31T00:53:55.933Z,5.15
2017-10-31T00:55:05.901Z,5.05
2017-10-31T00:56:15.883Z,5.19
2017-10-31T00:57:26.181Z,5.13
2017-10-31T00:58:36.386Z,5.07
2017-10-31T00:59:46.687Z,5.1
2017-10-31T01:00:56.985Z,5.13
2017-10-31T01:02:07.293Z,5.15
2017-10-31T01:03:17.581Z,5.16
2017-10-31T01:04:28.126Z,5.15
2017-10-31T01:05:38.431Z,5.05
2017-10-31T01:06:48.734Z,5.16
2017-10-31T01:07:58.707Z,5.15
2017-10-31T01:09:08.986Z,5.15
2017-10-31T01:10:19.554Z,5.12
2017-10-31T01:11:29.514Z,5.15
2017-10-31T01:12:39.513Z,5.1
2017-10-31T01:13:49.811Z,5.2
2017-10-31T01:14:59.774Z,5.15
2017-10-31T01:16:10.310Z,5.13
2017-10-31T01:17:20.617Z,5.07
2017-10-31T01:18:30.912Z,5.08
2017-10-31T01:19:41.195Z,5.16
2017-10-31T01:20:51.498Z,5.12
2017-10-31T01:22:02.037Z,5.22
2017-10-31T01:23:12.340Z,5.16
2017-10-31T01:24:22.311Z,5.08
2017-10-31T01:25:32.599Z,5.18
2017-10-31T01:26:42.895Z,5.18
2017-10-31T01:27:53.429Z,5.16
2017-10-31T01:29:03.417Z,5.08
2017-10-31T01:30:13.727Z,5.19
2017-10-31T01:31:23.712Z,5.16
2017-10-31T01:32:34.005Z,5.13
2017-10-31T01:33:44.550Z,5.13
2017-10-31T01:34:54.839Z,5.13
2017-10-31T01:36:05.132Z,5.15
2017-10-31T01:37:15.093Z,5.16
2017-10-31T01:38:25.402Z,5.23
2017-10-31T01:39:35.938Z,5.2
2017-10-31T01:40:46.226Z,5.18
2017-10-31T01:41:56.528Z,5.19
2017-10-31T01:43:06.501Z,5.16
2017-10-31T01:44:16.799Z,5.15
2017-10-31T01:45:27.035Z,5.16
2017-10-31T01:46:37.326Z,5.18
2017-10-31T01:47:47.289Z,5.2
2017-10-31T01:48:57.573Z,5.2
2017-10-31T01:50:07.862Z,5.19
2017-10-31T01:51:18.426Z,5.19
2017-10-31T01:52:28.384Z,5.16
2017-10-31T01:53:38.675Z,5.23
2017-10-31T01:54:48.967Z,5.23
2017-10-31T01:55:59.266Z,5.19
2017-10-31T01:57:09.476Z,5.23
2017-10-31T01:58:19.765Z,5.25
2017-10-31T01:59:30.070Z,5.2
2017-10-31T02:00:40.034Z,5.25
2017-10-31T02:01:50.323Z,5.25
2017-10-31T02:03:00.536Z,5.28
2017-10-31T02:04:10.817Z,5.16
2017-10-31T02:05:21.116Z,5.23
2017-10-31T02:06:30.756Z,5.25
2017-10-31T02:07:40.745Z,5.22
2017-10-31T02:08:51.270Z,5.22
2017-10-31T02:10:01.247Z,5.28
2017-10-31T02:11:11.535Z,5.26
2017-10-31T02:12:20.842Z,5.25
2017-10-31T02:13:31.132Z,5.23
2017-10-31T02:14:41.684Z,5.26
2017-10-31T02:15:51.976Z,5.31
2017-10-31T02:17:01.939Z,5.26
2017-10-31T02:18:11.569Z,5.29
2017-10-31T02:19:21.528Z,5.36
2017-10-31T02:20:32.080Z,5.34
2017-10-31T02:21:42.043Z,5.34
2017-10-31T02:22:52.322Z,5.34
2017-10-31T02:24:02.293Z,5.36
2017-10-31T02:25:12.610Z,5.34
2017-10-31T02:26:22.822Z,5.38
2017-10-31T02:27:32.793Z,5.31
2017-10-31T02:28:42.426Z,5.33
2017-10-31T02:29:52.404Z,5.29
2017-10-31T02:31:02.703Z,5.38
2017-10-31T02:32:13.257Z,5.38
2017-10-31T02:33:23.551Z,5.41
2017-10-31T02:34:33.840Z,5.36
2017-10-31T02:35:44.164Z,5.38
2017-10-31T02:36:54.460Z,5.49
2017-10-31T02:38:04.672Z,5.41
2017-10-31T02:39:14.646Z,5.49
2017-10-31T02:40:24.941Z,5.47
2017-10-31T02:41:34.918Z,5.46
2017-10-31T02:42:44.886Z,5.43
2017-10-31T02:43:55.427Z,5.43
2017-10-31T02:45:05.730Z,5.49
2017-10-31T02:46:16.039Z,5.49
2017-10-31T02:47:26.327Z,5.43
2017-10-31T02:48:36.629Z,5.46
2017-10-31T02:49:47.215Z,5.43
2017-10-31T02:50:57.501Z,5.43
2017-10-31T02:52:07.465Z,5.46
2017-10-31T02:53:17.440Z,5.47
2017-10-31T02:54:27.409Z,5.51
2017-10-31T02:55:37.630Z,5.41
2017-10-31T02:56:47.948Z,5.55
2017-10-31T02:57:58.247Z,5.58
2017-10-31T02:59:08.553Z,5.55
2017-10-31T03:00:18.853Z,5.58
2017-10-31T03:01:29.093Z,5.61
2017-10-31T03:02:39.379Z,5.49
2017-10-31T03:03:48.705Z,5.55
2017-10-31T03:04:59.009Z,5.58
2017-10-31T03:06:09.303Z,5.56
2017-10-31T03:07:19.835Z,5.58
2017-10-31T03:08:30.122Z,5.55
2017-10-31T03:09:40.429Z,5.56
2017-10-31T03:10:50.717Z,5.62
2017-10-31T03:12:00.716Z,5.55
2017-10-31T03:13:11.261Z,5.58
2017-10-31T03:14:21.220Z,5.55
2017-10-31T03:15:31.194Z,5.59
2017-10-31T03:16:41.476Z,5.67
2017-10-31T03:17:51.759Z,5.61
2017-10-31T03:19:02.301Z,5.69
2017-10-31T03:20:12.268Z,5.69
2017-10-31T03:21:22.561Z,5.67
2017-10-31T03:22:32.876Z,5.62
2017-10-31T03:23:43.158Z,5.65
2017-10-31T03:24:53.423Z,5.64
2017-10-31T03:26:03.708Z,5.69
2017-10-31T03:27:13.688Z,5.64
2017-10-31T03:28:23.983Z,5.67
2017-10-31T03:29:34.275Z,5.65
2017-10-31T03:30:44.826Z,5.62
2017-10-31T03:31:54.795Z,5.72
2017-10-31T03:33:05.080Z,5.64
2017-10-31T03:34:15.371Z,5.76
2017-10-31T03:35:25.664Z,5.67
2017-10-31T03:36:36.207Z,5.79
2017-10-31T03:37:46.517Z,5.72
2017-10-31T03:38:56.815Z,5.77
2017-10-31T03:40:07.114Z,5.69
2017-10-31T03:41:17.400Z,5.7
2017-10-31T03:42:27.974Z,5.73
2017-10-31T03:43:38.263Z,5.67
2017-10-31T03:44:48.227Z,5.7
2017-10-31T03:45:58.533Z,5.73
2017-10-31T03:47:08.833Z,5.72
2017-10-31T03:48:19.365Z,5.74
2017-10-31T03:49:29.659Z,5.79
2017-10-31T03:50:39.955Z,5.73
2017-10-31T03:51:50.261Z,5.72
2017-10-31T03:53:00.562Z,5.79
2017-10-31T03:54:11.102Z,5.79
2017-10-31T03:55:21.394Z,5.77
2017-10-31T03:56:31.375Z,5.72
2017-10-31T03:57:41.340Z,5.69
2017-10-31T03:58:51.633Z,5.72
2017-10-31T04:00:02.187Z,5.74
2017-10-31T04:01:12.139Z,5.67
2017-10-31T04:02:22.422Z,5.65
2017-10-31T04:03:32.715Z,5.67
2017-10-31T04:04:43.007Z,5.62
2017-10-31T04:05:53.220Z,5.7
2017-10-31T04:07:03.190Z,5.7
2017-10-31T04:08:13.486Z,5.73
2017-10-31T04:09:23.770Z,5.79
2017-10-31T04:10:34.051Z,5.62
2017-10-31T04:11:44.266Z,5.7
2017-10-31T04:12:54.231Z,5.67
2017-10-31T04:14:04.524Z,5.72
2017-10-31T04:15:14.475Z,5.74
2017-10-31T04:16:24.434Z,5.8
2017-10-31T04:17:34.975Z,5.8
2017-10-31T04:18:44.928Z,5.81
2017-10-31T04:19:55.213Z,5.7
2017-10-31T04:21:05.497Z,5.8
2017-10-31T04:22:15.790Z,5.72
2017-10-31T04:23:25.690Z,5.81
2017-10-31T04:24:35.988Z,5.76
2017-10-31T04:25:45.945Z,5.76
2017-10-31T04:26:56.228Z,5.74
2017-10-31T04:28:06.183Z,5.72
2017-10-31T04:29:16.399Z,5.7
2017-10-31T04:30:26.684Z,5.76
2017-10-31T04:31:36.967Z,5.81
2017-10-31T04:32:46.944Z,5.74
2017-10-31T04:33:57.236Z,5.72
2017-10-31T04:35:07.841Z,5.65
2017-10-31T04:36:17.471Z,5.74
2017-10-31T04:37:27.111Z,5.7
2017-10-31T04:38:37.409Z,5.76
2017-10-31T04:39:47.691Z,5.67
2017-10-31T04:40:57.908Z,5.73
2017-10-31T04:42:07.539Z,5.67
2017-10-31T04:43:17.814Z,5.62
2017-10-31T04:44:27.466Z,5.7
2017-10-31T04:45:37.747Z,5.64
2017-10-31T04:46:48.296Z,5.73
2017-10-31T04:47:58.582Z,5.61
2017-10-31T04:49:08.544Z,5.69
2017-10-31T04:50:18.500Z,5.67
2017-10-31T04:51:28.776Z,5.65
2017-10-31T04:52:39.313Z,5.73
2017-10-31T04:53:49.277Z,5.7
2017-10-31T04:54:59.239Z,5.62
2017-10-31T04:56:09.529Z,5.67
2017-10-31T04:57:19.814Z,5.72
2017-10-31T04:58:30.350Z,5.62
2017-10-31T04:59:40.625Z,5.69
2017-10-31T05:00:50.916Z,5.7
2017-10-31T05:02:01.215Z,5.72
2017-10-31T05:03:11.499Z,5.67
2017-10-31T05:04:21.713Z,5.64
2017-10-31T05:05:32.002Z,5.69
2017-10-31T05:06:42.296Z,5.65
2017-10-31T05:07:52.585Z,5.73
2017-10-31T05:09:02.556Z,5.67
2017-10-31T05:10:13.117Z,5.76
2017-10-31T05:11:22.749Z,5.76
2017-10-31T05:12:32.719Z,5.77
2017-10-31T05:13:43.005Z,5.73
2017-10-31T05:14:52.966Z,5.74
2017-10-31T05:16:02.898Z,5.84
2017-10-31T05:17:12.532Z,5.83
2017-10-31T05:18:22.818Z,5.8
2017-10-31T05:19:33.109Z,5.9
2017-10-31T05:20:43.409Z,5.9
2017-10-31T05:21:53.635Z,5.84
2017-10-31T05:23:03.918Z,5.95
2017-10-31T05:24:13.873Z,6.02
2017-10-31T05:25:24.159Z,5.94
2017-10-31T05:26:34.117Z,6.01
2017-10-31T05:27:44.660Z,6.02
2017-10-31T05:28:54.940Z,6.01
2017-10-31T05:30:04.899Z,6.01
2017-10-31T05:31:15.197Z,5.98
2017-10-31T05:32:25.494Z,6.02
2017-10-31T05:33:36.032Z,6.13
2017-10-31T05:34:46.000Z,6.15
2017-10-31T05:35:56.294Z,5.99
2017-10-31T05:37:06.575Z,6.07
2017-10-31T05:38:16.871Z,6.13
2017-10-31T05:39:27.412Z,6.15
2017-10-31T05:40:37.695Z,6.15
2017-10-31T05:41:47.981Z,6.15
2017-10-31T05:42:58.274Z,6.1
2017-10-31T05:44:08.573Z,6.13
2017-10-31T05:45:19.113Z,6.13
2017-10-31T05:46:29.067Z,6.15
2017-10-31T05:47:39.018Z,6.2
2017-10-31T05:48:48.661Z,6.15
2017-10-31T05:49:58.633Z,6.1
2017-10-31T05:51:09.193Z,6.2
2017-10-31T05:52:19.475Z,6.16
2017-10-31T05:53:29.447Z,6.16
2017-10-31T05:54:39.729Z,6.16
2017-10-31T05:55:50.023Z,6.29
2017-10-31T05:56:59.893Z,6.28
2017-10-31T05:58:09.852Z,6.29
2017-10-31T05:59:20.138Z,6.31
2017-10-31T06:00:30.439Z,6.25
2017-10-31T06:01:40.714Z,6.34
2017-10-31T06:02:51.264Z,6.31
2017-10-31T06:04:01.668Z,6.29
2017-10-31T06:05:11.971Z,6.26
2017-10-31T06:06:22.275Z,6.35
2017-10-31T06:07:31.923Z,6.36
2017-10-31T06:08:42.461Z,6.34
2017-10-31T06:09:52.450Z,6.39
2017-10-31T06:11:02.729Z,6.34
2017-10-31T06:12:12.712Z,6.35
2017-10-31T06:13:22.685Z,6.38
2017-10-31T06:14:33.229Z,6.26
2017-10-31T06:15:43.534Z,6.32
2017-10-31T06:16:53.836Z,6.41
2017-10-31T06:18:03.811Z,6.36
2017-10-31T06:19:14.132Z,6.43
2017-10-31T06:20:24.683Z,6.41
2017-10-31T06:21:34.978Z,6.34
2017-10-31T06:22:44.292Z,6.53
2017-10-31T06:23:54.578Z,6.53
2017-10-31T06:25:04.873Z,6.56
2017-10-31T06:26:15.409Z,6.54
2017-10-31T06:27:25.693Z,6.56
2017-10-31T06:28:35.978Z,6.59
2017-10-31T06:29:46.272Z,6.52
2017-10-31T06:30:55.918Z,6.62
2017-10-31T06:32:06.451Z,6.57
2017-10-31T06:33:16.415Z,6.57
2017-10-31T06:34:26.378Z,6.57
2017-10-31T06:35:36.360Z,6.57
2017-10-31T06:36:46.664Z,6.6
2017-10-31T06:37:56.889Z,6.57
2017-10-31T06:39:06.526Z,6.57
2017-10-31T06:40:16.156Z,6.57
2017-10-31T06:41:26.448Z,6.6
2017-10-31T06:42:36.420Z,6.6
2017-10-31T06:43:46.961Z,6.57
2017-10-31T06:44:56.934Z,6.68
2017-10-31T06:46:07.229Z,6.57
2017-10-31T06:47:17.515Z,6.59
2017-10-31T06:48:27.488Z,6.7
2017-10-31T06:49:37.768Z,6.6
2017-10-31T06:50:48.058Z,6.6
2017-10-31T06:51:58.344Z,6.72
2017-10-31T06:53:08.299Z,6.71
2017-10-31T06:54:18.598Z,6.7
2017-10-31T06:55:29.193Z,6.71
2017-10-31T06:56:39.169Z,6.72
2017-10-31T06:57:48.829Z,6.7
2017-10-31T06:58:59.114Z,6.68
2017-10-31T07:00:09.415Z,6.74
2017-10-31T07:01:19.619Z,6.74
2017-10-31T07:02:29.934Z,6.68
2017-10-31T07:03:39.907Z,6.68
2017-10-31T07:04:50.200Z,6.8
2017-10-31T07:06:00.480Z,6.77
2017-10-31T07:07:11.071Z,6.67
2017-10-31T07:08:21.032Z,6.72
2017-10-31T07:09:31.320Z,6.74
2017-10-31T07:10:41.607Z,6.77
2017-10-31T07:11:51.904Z,6.77
2017-10-31T07:13:02.435Z,6.78
2017-10-31T07:14:12.754Z,6.85
2017-10-31T07:15:23.056Z,6.83
2017-10-31T07:16:33.343Z,6.83
2017-10-31T07:17:43.643Z,6.8
2017-10-31T07:18:53.854Z,6.9
2017-10-31T07:20:03.827Z,6.92
2017-10-31T07:21:14.114Z,6.83
2017-10-31T07:22:24.400Z,6.83
2017-10-31T07:23:34.389Z,6.87
2017-10-31T07:24:44.597Z,6.87
2017-10-31T07:25:54.249Z,6.9
2017-10-31T07:27:04.217Z,6.83
2017-10-31T07:28:14.193Z,6.96
2017-10-31T07:29:24.158Z,6.89
2017-10-31T07:30:34.717Z,7.01
2017-10-31T07:31:44.685Z,6.93
2017-10-31T07:32:54.974Z,6.97
2017-10-31T07:34:05.269Z,6.9
2017-10-31T07:35:15.571Z,6.93
2017-10-31T07:36:26.136Z,6.96
2017-10-31T07:37:36.101Z,7.01
2017-10-31T07:38:46.391Z,7.03
2017-10-31T07:39:55.712Z,6.97
2017-10-31T07:41:06.014Z,6.92
2017-10-31T07:42:16.246Z,7
2017-10-31T07:43:26.546Z,7.04
2017-10-31T07:44:36.843Z,7.01
2017-10-31T07:45:47.139Z,7.07
2017-10-31T07:46:57.442Z,7.01
2017-10-31T07:48:07.665Z,7.13
2017-10-31T07:49:17.988Z,7.03
2017-10-31T07:50:28.295Z,7
2017-10-31T07:51:38.596Z,7.04
2017-10-31T07:52:48.884Z,7.05
2017-10-31T07:53:59.106Z,7
2017-10-31T07:55:09.398Z,6.97
2017-10-31T07:56:19.696Z,7.05
2017-10-31T07:57:29.667Z,7.05
2017-10-31T07:58:39.647Z,7.03
2017-10-31T07:59:49.525Z,7.13
2017-10-31T08:00:59.817Z,7.14
2017-10-31T08:02:10.347Z,7.13
2017-10-31T08:03:19.977Z,7.11
2017-10-31T08:04:29.950Z,7.15
2017-10-31T08:05:40.168Z,7.15
2017-10-31T08:06:50.156Z,7.21
2017-10-31T08:08:00.448Z,7.14
2017-10-31T08:09:10.422Z,7.18
2017-10-31T08:10:20.379Z,7.19
2017-10-31T08:11:30.920Z,7.18
2017-10-31T08:12:41.220Z,7.33
2017-10-31T08:13:51.185Z,7.32
2017-10-31T08:15:01.489Z,7.29
2017-10-31T08:16:11.468Z,7.25
2017-10-31T08:17:22.006Z,7.22
2017-10-31T08:18:32.312Z,7.29
2017-10-31T08:19:42.611Z,7.26
2017-10-31T08:20:52.575Z,7.29
2017-10-31T08:22:02.537Z,7.22
2017-10-31T08:23:13.081Z,7.31
2017-10-31T08:24:23.379Z,7.28
2017-10-31T08:25:33.672Z,7.23
2017-10-31T08:26:43.982Z,7.23
2017-10-31T08:27:53.945Z,7.33
2017-10-31T08:29:04.478Z,7.31
2017-10-31T08:30:14.444Z,7.37
2017-10-31T08:31:24.775Z,7.33
2017-10-31T08:32:35.067Z,7.39
2017-10-31T08:33:45.025Z,7.28
2017-10-31T08:34:55.588Z,7.36
2017-10-31T08:36:05.551Z,7.32
2017-10-31T08:37:15.526Z,7.39
2017-10-31T08:38:25.823Z,7.44
2017-10-31T08:39:36.112Z,7.51
2017-10-31T08:40:46.665Z,7.44
2017-10-31T08:41:56.630Z,7.44
2017-10-31T08:43:06.279Z,7.51
2017-10-31T08:44:16.572Z,7.51
2017-10-31T08:45:26.548Z,7.44
2017-10-31T08:46:37.102Z,7.46
2017-10-31T08:47:47.389Z,7.51
2017-10-31T08:48:58.101Z,7.51
2017-10-31T08:50:08.390Z,7.53
2017-10-31T08:51:18.685Z,7.59
2017-10-31T08:52:28.920Z,7.55
2017-10-31T08:53:39.212Z,7.55
2017-10-31T08:54:49.211Z,7.59
2017-10-31T08:55:59.221Z,7.58
2017-10-31T08:57:09.192Z,7.66
2017-10-31T08:58:19.455Z,7.64
2017-10-31T08:59:29.414Z,7.75
2017-10-31T09:00:39.711Z,7.7
2017-10-31T09:01:49.996Z,7.85
2017-10-31T09:03:00.301Z,7.78
2017-10-31T09:04:10.864Z,7.75
2017-10-31T09:05:21.154Z,7.88
2017-10-31T09:06:31.458Z,7.77
2017-10-31T09:07:41.762Z,7.87
2017-10-31T09:08:52.066Z,7.91
2017-10-31T09:10:02.669Z,7.98
2017-10-31T09:11:12.976Z,8.03
2017-10-31T09:12:23.273Z,8.05
2017-10-31T09:13:33.574Z,8.06
2017-10-31T09:14:43.868Z,7.98
2017-10-31T09:15:54.428Z,8.01
2017-10-31T09:17:04.749Z,7.98
2017-10-31T09:18:15.049Z,8.01
2017-10-31T09:19:25.025Z,8.06
2017-10-31T09:20:35.316Z,8.06
2017-10-31T09:21:45.860Z,8.05
2017-10-31T09:22:56.163Z,8.05
2017-10-31T09:24:06.480Z,8.05
2017-10-31T09:25:16.782Z,8.03
2017-10-31T09:26:27.072Z,8.03
2017-10-31T09:27:37.612Z,8.08
2017-10-31T09:28:47.574Z,8.03
2017-10-31T09:29:57.873Z,8.13
2017-10-31T09:31:07.527Z,8.11
2017-10-31T09:32:17.843Z,8.16
2017-10-31T09:33:28.396Z,8.14
2017-10-31T09:34:38.067Z,8.16
2017-10-31T09:35:48.383Z,8.16
2017-10-31T09:36:58.345Z,8.21
2017-10-31T09:38:08.637Z,8.32
2017-10-31T09:39:19.194Z,8.32
2017-10-31T09:40:29.171Z,8.34
2017-10-31T09:41:39.165Z,8.32
2017-10-31T09:42:49.127Z,8.32
2017-10-31T09:43:59.110Z,8.18
2017-10-31T09:45:09.664Z,8.23
2017-10-31T09:46:18.993Z,8.18
2017-10-31T09:47:29.289Z,8.2
2017-10-31T09:48:39.261Z,8.27
2017-10-31T09:49:49.551Z,8.34
2017-10-31T09:50:59.791Z,8.36
2017-10-31T09:52:10.081Z,8.27
2017-10-31T09:53:20.378Z,8.34
2017-10-31T09:54:30.673Z,8.41
2017-10-31T09:55:40.636Z,8.46
2017-10-31T09:56:51.218Z,8.56
2017-10-31T09:58:01.523Z,8.46
2017-10-31T09:59:11.843Z,8.5
2017-10-31T10:00:20.831Z,8.59
2017-10-31T10:01:30.797Z,8.6
2017-10-31T10:02:41.016Z,8.63
2017-10-31T10:03:51.328Z,8.61
2017-10-31T10:05:01.621Z,8.59
2017-10-31T10:06:11.918Z,8.68
2017-10-31T10:07:21.899Z,8.63
2017-10-31T10:08:32.453Z,8.66
2017-10-31T10:09:42.755Z,8.66
2017-10-31T10:10:52.403Z,8.59
2017-10-31T10:12:02.707Z,8.59
2017-10-31T10:13:12.677Z,8.61
2017-10-31T10:14:23.232Z,8.64
2017-10-31T10:15:33.198Z,8.61
2017-10-31T10:16:42.841Z,8.61
2017-10-31T10:17:52.816Z,8.57
2017-10-31T10:19:02.796Z,8.52
2017-10-31T10:20:13.386Z,8.61
2017-10-31T10:21:23.695Z,8.6
2017-10-31T10:22:34.011Z,8.64
2017-10-31T10:23:43.996Z,8.71
2017-10-31T10:24:54.320Z,8.63
2017-10-31T10:26:04.885Z,8.64
2017-10-31T10:27:14.854Z,8.68
2017-10-31T10:28:24.847Z,8.72
2017-10-31T10:29:35.160Z,8.78
2017-10-31T10:30:44.812Z,8.78
2017-10-31T10:31:55.353Z,8.89
2017-10-31T10:33:05.675Z,8.87
2017-10-31T10:34:15.661Z,8.78
2017-10-31T10:35:25.970Z,8.82
2017-10-31T10:36:36.292Z,8.82
2017-10-31T10:37:46.919Z,8.75
2017-10-31T10:38:56.576Z,8.75
2017-10-31T10:40:06.545Z,8.75
2017-10-31T10:41:16.181Z,8.71
2017-10-31T10:42:26.158Z,8.72
2017-10-31T10:43:36.405Z,8.74
2017-10-31T10:44:46.381Z,8.79
2017-10-31T10:45:56.050Z,8.79
2017-10-31T10:47:06.355Z,8.75
2017-10-31T10:48:16.000Z,8.66
2017-10-31T10:49:26.594Z,8.81
2017-10-31T10:50:36.895Z,8.77
2017-10-31T10:51:47.205Z,8.78
2017-10-31T10:52:57.844Z,8.84
2017-10-31T10:54:08.150Z,8.95
2017-10-31T10:55:18.382Z,8.93
2017-10-31T10:56:28.679Z,8.84
2017-10-31T10:57:38.652Z,8.97
2017-10-31T10:58:48.999Z,8.95
2017-10-31T10:59:59.301Z,8.96
2017-10-31T11:01:09.879Z,8.95
2017-10-31T11:02:20.201Z,8.92
2017-10-31T11:03:30.175Z,8.92
2017-10-31T11:04:40.484Z,8.86
2017-10-31T11:05:50.803Z,8.97
2017-10-31T11:07:01.352Z,8.96
2017-10-31T11:08:11.654Z,8.86
2017-10-31T11:09:21.645Z,8.95
2017-10-31T11:10:31.956Z,8.99
2017-10-31T11:11:42.275Z,9.05
2017-10-31T11:12:52.822Z,9.08
2017-10-31T11:14:03.138Z,9
2017-10-31T11:15:12.807Z,9.05
2017-10-31T11:16:23.113Z,9.19
2017-10-31T11:17:32.766Z,9.21
2017-10-31T11:18:43.304Z,9.22
2017-10-31T11:19:53.265Z,9.09
2017-10-31T11:21:03.563Z,8.95
2017-10-31T11:22:13.532Z,8.95
2017-10-31T11:23:23.835Z,8.95
2017-10-31T11:24:34.063Z,8.93
2017-10-31T11:25:44.044Z,8.89
2017-10-31T11:26:54.055Z,9.03
2017-10-31T11:28:04.362Z,8.93
2017-10-31T11:29:14.678Z,8.97
2017-10-31T11:30:25.278Z,9.02
2017-10-31T11:31:35.576Z,8.95
2017-10-31T11:32:45.894Z,8.96
2017-10-31T11:33:55.862Z,8.96
2017-10-31T11:35:06.174Z,9
2017-10-31T11:36:16.731Z,8.96
2017-10-31T11:37:27.065Z,8.96
2017-10-31T11:38:37.365Z,8.99
2017-10-31T11:39:47.658Z,9.02
2017-10-31T11:40:57.961Z,9.09
2017-10-31T11:42:08.514Z,9.05
2017-10-31T11:43:19.049Z,9.05
2017-10-31T11:44:29.341Z,9.12
2017-10-31T11:45:39.666Z,9.05
2017-10-31T11:46:49.963Z,9.11
2017-10-31T11:48:00.206Z,9.11
2017-10-31T11:49:10.198Z,9.05
2017-10-31T11:50:20.172Z,9.05
2017-10-31T11:51:30.471Z,9
2017-10-31T11:52:40.785Z,9.09
2017-10-31T11:53:51.052Z,8.95
2017-10-31T11:55:01.347Z,8.93
2017-10-31T11:56:11.645Z,8.92
2017-10-31T11:57:21.289Z,8.86
2017-10-31T11:58:31.254Z,8.86
2017-10-31T11:59:41.482Z,8.99
2017-10-31T12:00:51.454Z,8.97
2017-10-31T12:02:01.430Z,8.93
2017-10-31T12:03:11.736Z,8.97
2017-10-31T12:04:21.708Z,9.03
2017-10-31T12:05:31.609Z,9.02
2017-10-31T12:06:41.919Z,8.95
2017-10-31T12:07:52.224Z,8.95
2017-10-31T12:09:02.544Z,9
2017-10-31T12:10:12.850Z,9.05
2017-10-31T12:11:23.404Z,9.12
2017-10-31T12:12:33.707Z,9.05
2017-10-31T12:13:43.349Z,9.19
2017-10-31T12:14:53.649Z,9.22
2017-10-31T12:16:03.625Z,9.13
2017-10-31T12:17:14.212Z,9.09
2017-10-31T12:18:23.890Z,9.15
2017-10-31T12:19:34.191Z,9.05
2017-10-31T12:20:44.169Z,9.16
2017-10-31T12:21:54.140Z,9.15
2017-10-31T12:23:04.684Z,9.11
2017-10-31T12:24:14.655Z,9.12
2017-10-31T12:25:24.624Z,9.05
2017-10-31T12:26:34.936Z,9.03
2017-10-31T12:27:45.225Z,9.08
2017-10-31T12:28:55.775Z,9.03
2017-10-31T12:30:06.072Z,9.18
2017-10-31T12:31:16.372Z,9.16
2017-10-31T12:32:26.684Z,9.16
2017-10-31T12:33:36.658Z,9.22
2017-10-31T12:34:46.875Z,9.27
2017-10-31T12:35:56.842Z,9.19
2017-10-31T12:37:06.822Z,9.21
2017-10-31T12:38:17.158Z,9.27
2017-10-31T12:39:27.691Z,9.24
2017-10-31T12:40:38.238Z,9.19
2017-10-31T12:41:48.208Z,9.27
2017-10-31T12:42:58.540Z,9.21
2017-10-31T12:44:08.521Z,9.24
2017-10-31T12:45:18.489Z,9.27
2017-10-31T12:46:28.428Z,9.27
2017-10-31T12:47:38.422Z,9.26
2017-10-31T12:48:48.721Z,9.26
2017-10-31T12:49:59.034Z,9.31
2017-10-31T12:51:09.338Z,9.33
2017-10-31T12:52:19.553Z,9.4
2017-10-31T12:53:29.867Z,9.22
2017-10-31T12:54:39.843Z,9.24
2017-10-31T12:55:50.147Z,9.24
2017-10-31T12:57:00.120Z,9.22
2017-10-31T12:58:10.669Z,9.19
2017-10-31T12:59:20.977Z,9.29
2017-10-31T13:00:31.342Z,9.21
2017-10-31T13:01:41.313Z,9.26
2017-10-31T13:02:51.605Z,9.31
2017-10-31T13:04:02.149Z,9.24
2017-10-31T13:05:12.438Z,9.21
2017-10-31T13:06:22.745Z,9.27
2017-10-31T13:07:33.036Z,9.24
2017-10-31T13:08:43.327Z,9.22
2017-10-31T13:09:52.886Z,9.24
2017-10-31T13:11:03.191Z,9.24
2017-10-31T13:12:13.478Z,9.22
2017-10-31T13:13:23.770Z,9.22
2017-10-31T13:14:34.072Z,9.26
2017-10-31T13:15:44.024Z,9.18
2017-10-31T13:16:54.327Z,9.27
2017-10-31T13:18:04.633Z,9.26
2017-10-31T13:19:14.287Z,9.22
2017-10-31T13:20:24.614Z,9.22
2017-10-31T13:21:35.163Z,9.26
2017-10-31T13:22:45.505Z,9.26
2017-10-31T13:23:55.811Z,9.34
2017-10-31T13:25:05.803Z,9.3
2017-10-31T13:26:16.111Z,9.3
2017-10-31T13:27:26.657Z,9.36
2017-10-31T13:28:36.621Z,9.22
2017-10-31T13:29:46.260Z,9.36
2017-10-31T13:30:56.240Z,9.4
2017-10-31T13:32:06.215Z,9.45
2017-10-31T13:33:16.761Z,9.44
2017-10-31T13:34:27.046Z,9.44
2017-10-31T13:35:36.692Z,9.37
2017-10-31T13:36:46.986Z,9.34
2017-10-31T13:37:56.964Z,9.26
2017-10-31T13:39:07.539Z,9.33
2017-10-31T13:40:17.180Z,9.34
2017-10-31T13:41:27.505Z,9.45
2017-10-31T13:42:37.512Z,9.39
2017-10-31T13:43:47.811Z,9.34
2017-10-31T13:44:58.360Z,9.29
2017-10-31T13:46:08.684Z,9.26
2017-10-31T13:47:18.999Z,9.27
2017-10-31T13:48:28.967Z,9.34
2017-10-31T13:49:38.930Z,9.4
2017-10-31T13:50:49.192Z,9.36
2017-10-31T13:51:59.511Z,9.4
2017-10-31T13:53:09.817Z,9.48
2017-10-31T13:54:19.832Z,9.56
2017-10-31T13:55:29.808Z,9.58
2017-10-31T13:56:40.382Z,9.54
2017-10-31T13:57:50.044Z,9.51
2017-10-31T13:59:00.340Z,9.49
2017-10-31T14:00:10.662Z,9.45
2017-10-31T14:01:20.954Z,9.45
2017-10-31T14:02:31.178Z,9.44
2017-10-31T14:03:41.478Z,9.36
2017-10-31T14:04:51.786Z,9.39
2017-10-31T14:06:01.760Z,9.24
2017-10-31T14:07:12.063Z,9.3
2017-10-31T14:08:22.292Z,9.21
2017-10-31T14:09:32.257Z,9.26
2017-10-31T14:10:42.244Z,9.24
2017-10-31T14:11:52.573Z,9.26
2017-10-31T14:13:02.869Z,9.24
2017-10-31T14:14:13.093Z,9.24
2017-10-31T14:15:23.387Z,9.3
2017-10-31T14:16:33.362Z,9.36
2017-10-31T14:17:43.661Z,9.34
2017-10-31T14:18:53.631Z,9.29
2017-10-31T14:20:04.192Z,9.26
2017-10-31T14:21:14.155Z,9.26
2017-10-31T14:22:24.450Z,9.27
2017-10-31T14:23:34.771Z,9.3
2017-10-31T14:24:45.065Z,9.33
2017-10-31T14:25:55.292Z,9.29
2017-10-31T14:27:05.604Z,9.3
2017-10-31T14:28:15.602Z,9.27
2017-10-31T14:29:25.583Z,9.24
2017-10-31T14:30:35.921Z,9.3
2017-10-31T14:31:46.482Z,9.27
2017-10-31T14:32:56.796Z,9.26
2017-10-31T14:34:07.104Z,9.24
2017-10-31T14:35:17.408Z,9.26
2017-10-31T14:36:27.374Z,9.29
2017-10-31T14:37:37.937Z,9.31
2017-10-31T14:38:47.919Z,9.21
2017-10-31T14:39:57.893Z,9.24
2017-10-31T14:41:08.198Z,9.22
2017-10-31T14:42:18.179Z,9.15
2017-10-31T14:43:28.402Z,9.13
2017-10-31T14:44:38.704Z,9.22
2017-10-31T14:45:49.005Z,9.12
2017-10-31T14:46:59.328Z,9.05
2017-10-31T14:48:09.623Z,9.05
2017-10-31T14:49:19.852Z,9.05
2017-10-31T14:50:29.830Z,9.05
2017-10-31T14:51:39.797Z,8.95
2017-10-31T14:52:49.771Z,8.97
2017-10-31T14:53:59.401Z,9.03
2017-10-31T14:55:09.954Z,8.99
2017-10-31T14:56:19.941Z,8.96
2017-10-31T14:57:29.585Z,8.99
2017-10-31T14:58:39.883Z,8.95
2017-10-31T14:59:49.857Z,8.96
2017-10-31T15:01:00.407Z,8.97
2017-10-31T15:02:10.387Z,8.97
2017-10-31T15:03:20.041Z,9.03
2017-10-31T15:04:30.343Z,8.97
2017-10-31T15:05:40.327Z,8.97
2017-10-31T15:06:50.878Z,8.97
2017-10-31T15:08:00.881Z,8.97
2017-10-31T15:09:11.198Z,8.93
2017-10-31T15:10:21.748Z,8.96
2017-10-31T15:11:31.742Z,8.97
2017-10-31T15:12:41.979Z,8.96
2017-10-31T15:13:52.278Z,8.96
2017-10-31T15:15:02.598Z,8.96
2017-10-31T15:16:12.903Z,8.93
2017-10-31T15:17:23.198Z,8.9
2017-10-31T15:18:33.438Z,8.87
2017-10-31T15:19:43.417Z,8.96
2017-10-31T15:20:53.722Z,8.92
2017-10-31T15:22:04.010Z,9
2017-10-31T15:23:14.312Z,8.92
2017-10-31T15:24:24.852Z,8.86
2017-10-31T15:25:34.824Z,8.79
2017-10-31T15:26:44.811Z,8.87
2017-10-31T15:27:55.129Z,8.79
2017-10-31T15:29:05.429Z,8.84
2017-10-31T15:30:15.965Z,8.86
2017-10-31T15:31:26.263Z,8.77
2017-10-31T15:32:36.578Z,8.78
2017-10-31T15:33:46.879Z,8.71
2017-10-31T15:34:56.847Z,8.71
2017-10-31T15:36:07.080Z,8.66
2017-10-31T15:37:17.063Z,8.71